Time,TemperatureF,DewpointF,PressureIn,WindDirection,WindDirectionDegrees,WindSpeedMPH,WindSpeedGustMPH,Humidity,HourlyPrecipIn,Conditions,Clouds,dailyrainin,SoftwareType,DateUTC
2013-01-01 00:02:00,23.0,15.0,30.04,West,270,5.0,-999.0,71,-99.99,,,-99.99,,2013-01-01 07:02:00,
2013-01-01 00:12:00,23.0,15.0,30.04,West,270,5.0,-999.0,71,-99.99,,,-99.99,,2013-01-01 07:12:00,
2013-01-01 00:22:00,23.0,15.0,30.04,WSW,250,3.0,-999.0,69,-99.99,,,-99.99,,2013-01-01 07:22:00,
2013-01-01 00:32:00,23.0,15.0,30.04,WSW,250,3.0,-999.0,69,-99.99,,,-99.99,,2013-01-01 07:32:00,
2013-01-01 00:42:00,21.0,14.0,30.05,WNW,290,5.0,-999.0,74,-99.99,,,-99.99,,2013-01-01 07:42:00,
2013-01-01 00:52:00,21.0,14.0,30.05,WNW,290,5.0,-999.0,74,-99.99,,,-99.99,,2013-01-01 07:52:00,
2013-01-01 01:02:00,22.0,13.0,30.05,West,270,6.0,-999.0,67,-99.99,,,-99.99,,2013-01-01 08:02:00,
2013-01-01 01:12:00,22.0,13.0,30.05,West,270,6.0,-999.0,67,-99.99,,,-99.99,,2013-01-01 08:12:00,
2013-01-01 01:22:00,23.0,13.0,30.05,West,280,5.0,-999.0,63,-99.99,,,-99.99,,2013-01-01 08:22:00,
2013-01-01 01:32:00,23.0,13.0,30.05,West,280,5.0,-999.0,63,-99.99,,,-99.99,,2013-01-01 08:32:00,
2013-01-01 01:42:00,22.0,12.0,30.06,West,280,6.0,-999.0,65,-99.99,,,-99.99,,2013-01-01 08:42:00,
2013-01-01 01:53:00,22.0,12.0,30.06,West,260,3.0,-999.0,63,-99.99,,,-99.99,,2013-01-01 08:53:00,
2013-01-01 02:02:00,22.0,12.0,30.06,West,260,3.0,-999.0,63,-99.99,,,-99.99,,2013-01-01 09:02:00,
2013-01-01 02:12:00,22.0,12.0,30.06,West,260,3.0,-999.0,63,-99.99,,,-99.99,,2013-01-01 09:12:00,
2013-01-01 02:22:00,22.0,11.0,30.06,West,270,6.0,-999.0,62,-99.99,,,-99.99,,2013-01-01 09:22:00,
2013-01-01 02:32:00,22.0,11.0,30.06,West,270,6.0,-999.0,62,-99.99,,,-99.99,,2013-01-01 09:32:00,
2013-01-01 02:42:00,22.0,11.0,30.07,West,270,7.0,-999.0,61,-99.99,,,-99.99,,2013-01-01 09:42:00,
2013-01-01 02:52:00,21.0,11.0,30.07,West,260,6.0,-999.0,63,-99.99,,,-99.99,,2013-01-01 09:52:00,
2013-01-01 03:02:00,21.0,11.0,30.07,West,260,6.0,-999.0,63,-99.99,,,-99.99,,2013-01-01 10:02:00,
2013-01-01 03:12:00,21.0,11.0,30.07,West,260,6.0,-999.0,63,-99.99,,,-99.99,,2013-01-01 10:12:00,
2013-01-01 03:22:00,20.0,10.0,30.06,WSW,240,6.0,-999.0,65,-99.99,,,-99.99,,2013-01-01 10:22:00,
2013-01-01 03:33:00,20.0,10.0,30.06,WSW,240,6.0,-999.0,65,-99.99,,,-99.99,,2013-01-01 10:33:00,
2013-01-01 03:42:00,20.0,10.0,30.06,WSW,240,5.0,-999.0,65,-99.99,,,-99.99,,2013-01-01 10:42:00,
2013-01-01 03:52:00,20.0,10.0,30.06,WSW,240,5.0,-999.0,65,-99.99,,,-99.99,,2013-01-01 10:52:00,
2013-01-01 04:02:00,20.0,10.0,30.06,West,260,6.0,-999.0,65,-99.99,,,-99.99,,2013-01-01 11:02:00,
2013-01-01 04:12:00,20.0,10.0,30.06,West,260,6.0,-999.0,65,-99.99,,,-99.99,,2013-01-01 11:12:00,
2013-01-01 04:22:00,19.0,10.0,30.05,West,270,6.0,-999.0,65,-99.99,,,-99.99,,2013-01-01 11:22:00,
2013-01-01 04:32:00,20.0,10.0,30.05,West,280,7.0,-999.0,64,-99.99,,,-99.99,,2013-01-01 11:32:00,
2013-01-01 04:42:00,20.0,10.0,30.05,West,280,7.0,-999.0,64,-99.99,,,-99.99,,2013-01-01 11:42:00,
2013-01-01 04:53:00,20.0,10.0,30.05,West,280,7.0,-999.0,66,-99.99,,,-99.99,,2013-01-01 11:53:00,
2013-01-01 05:02:00,20.0,10.0,30.05,West,280,7.0,-999.0,66,-99.99,,,-99.99,,2013-01-01 12:02:00,
2013-01-01 05:12:00,20.0,10.0,30.05,West,280,7.0,-999.0,66,-99.99,,,-99.99,,2013-01-01 12:12:00,
2013-01-01 05:22:00,20.0,11.0,30.04,West,280,6.0,-999.0,67,-99.99,,,-99.99,,2013-01-01 12:22:00,
2013-01-01 05:32:00,20.0,11.0,30.04,WSW,250,6.0,-999.0,67,-99.99,,,-99.99,,2013-01-01 12:32:00,
2013-01-01 05:42:00,20.0,11.0,30.04,WSW,250,6.0,-999.0,67,-99.99,,,-99.99,,2013-01-01 12:42:00,
2013-01-01 05:52:00,20.0,11.0,30.04,WSW,250,6.0,-999.0,67,-99.99,,,-99.99,,2013-01-01 12:52:00,
2013-01-01 06:02:00,20.0,11.0,30.04,West,260,7.0,-999.0,67,-99.99,,,-99.99,,2013-01-01 13:02:00,
2013-01-01 06:12:00,20.0,11.0,30.04,West,260,7.0,-999.0,67,-99.99,,,-99.99,,2013-01-01 13:12:00,
2013-01-01 06:22:00,21.0,12.0,30.04,West,280,8.0,-999.0,67,-99.99,,,-99.99,,2013-01-01 13:22:00,
2013-01-01 06:32:00,21.0,12.0,30.04,West,280,8.0,-999.0,67,-99.99,,,-99.99,,2013-01-01 13:32:00,
2013-01-01 06:42:00,22.0,12.0,30.04,West,260,8.0,-999.0,66,-99.99,,,-99.99,,2013-01-01 13:42:00,
2013-01-01 06:52:00,21.0,12.0,30.05,West,270,6.0,-999.0,67,-99.99,,,-99.99,,2013-01-01 13:52:00,
2013-01-01 07:02:00,21.0,12.0,30.05,West,270,6.0,-999.0,67,-99.99,,,-99.99,,2013-01-01 14:02:00,
2013-01-01 07:12:00,21.0,12.0,30.05,West,270,6.0,-999.0,67,-99.99,,,-99.99,,2013-01-01 14:12:00,
2013-01-01 07:22:00,22.0,13.0,30.05,WSW,250,3.0,-999.0,67,-99.99,,,-99.99,,2013-01-01 14:22:00,
2013-01-01 07:32:00,22.0,13.0,30.04,WSW,240,7.0,-999.0,67,-99.99,,,-99.99,,2013-01-01 14:32:00,
2013-01-01 07:42:00,22.0,13.0,30.04,WSW,240,7.0,-999.0,67,-99.99,,,-99.99,,2013-01-01 14:42:00,
2013-01-01 07:53:00,22.0,13.0,30.04,WSW,240,7.0,-999.0,67,-99.99,,,-99.99,,2013-01-01 14:53:00,
2013-01-01 08:03:00,23.0,13.0,30.04,SW,230,6.0,-999.0,67,-99.99,,,-99.99,,2013-01-01 15:03:00,
2013-01-01 08:12:00,23.0,13.0,30.04,SW,230,6.0,-999.0,67,-99.99,,,-99.99,,2013-01-01 15:12:00,
2013-01-01 08:22:00,23.0,13.0,30.05,West,270,3.0,-999.0,66,-99.99,,,-99.99,,2013-01-01 15:22:00,
2013-01-01 08:33:00,21.0,12.0,30.05,East,80,2.0,-999.0,69,-99.99,,,-99.99,,2013-01-01 15:33:00,
2013-01-01 08:42:00,21.0,12.0,30.05,East,80,2.0,-999.0,69,-99.99,,,-99.99,,2013-01-01 15:42:00,
2013-01-01 08:53:00,21.0,12.0,30.05,East,80,2.0,-999.0,69,-99.99,,,-99.99,,2013-01-01 15:53:00,
2013-01-01 09:02:00,22.0,13.0,30.05,SSW,200,3.0,-999.0,69,-99.99,,,-99.99,,2013-01-01 16:02:00,
2013-01-01 09:12:00,22.0,13.0,30.05,SSW,200,3.0,-999.0,69,-99.99,,,-99.99,,2013-01-01 16:12:00,
2013-01-01 09:22:00,22.0,13.0,30.05,WNW,300,3.0,-999.0,68,-99.99,,,-99.99,,2013-01-01 16:22:00,
2013-01-01 09:33:00,25.0,15.0,30.05,South,180,2.0,-999.0,64,-99.99,,,-99.99,,2013-01-01 16:33:00,
2013-01-01 09:42:00,25.0,15.0,30.05,South,180,2.0,-999.0,64,-99.99,,,-99.99,,2013-01-01 16:42:00,
2013-01-01 09:52:00,25.0,15.0,30.05,South,180,2.0,-999.0,64,-99.99,,,-99.99,,2013-01-01 16:52:00,
2013-01-01 10:02:00,25.0,15.0,30.04,North,0,0.0,-999.0,65,-99.99,,,-99.99,,2013-01-01 17:02:00,
2013-01-01 10:12:00,25.0,15.0,30.04,North,0,0.0,-999.0,65,-99.99,,,-99.99,,2013-01-01 17:12:00,
2013-01-01 10:22:00,26.0,15.0,30.04,North,0,0.0,-999.0,63,-99.99,,,-99.99,,2013-01-01 17:22:00,
2013-01-01 10:33:00,26.0,15.0,30.04,North,0,0.0,-999.0,63,-99.99,,,-99.99,,2013-01-01 17:33:00,
2013-01-01 10:43:00,26.0,15.0,30.04,North,0,0.0,-999.0,63,-99.99,,,-99.99,,2013-01-01 17:43:00,
2013-01-01 10:52:00,26.0,15.0,30.04,North,0,0.0,-999.0,63,-99.99,,,-99.99,,2013-01-01 17:52:00,
2013-01-01 11:03:00,29.0,17.0,30.03,ESE,120,3.0,-999.0,61,-99.99,,,-99.99,,2013-01-01 18:03:00,
2013-01-01 11:12:00,29.0,17.0,30.03,ESE,120,3.0,-999.0,61,-99.99,,,-99.99,,2013-01-01 18:12:00,
2013-01-01 11:22:00,29.0,17.0,30.02,ESE,110,5.0,-999.0,61,-99.99,,,-99.99,,2013-01-01 18:22:00,
2013-01-01 11:33:00,29.0,18.0,30.01,ESE,110,5.0,-999.0,62,-99.99,,,-99.99,,2013-01-01 18:33:00,
2013-01-01 11:42:00,29.0,18.0,30.01,ESE,110,5.0,-999.0,62,-99.99,,,-99.99,,2013-01-01 18:42:00,
2013-01-01 11:52:00,29.0,18.0,30.01,ESE,110,5.0,-999.0,62,-99.99,,,-99.99,,2013-01-01 18:52:00,
2013-01-01 12:02:00,31.0,20.0,30.00,ESE,120,6.0,-999.0,63,-99.99,,,-99.99,,2013-01-01 19:02:00,
2013-01-01 12:12:00,31.0,20.0,30.00,ESE,120,6.0,-999.0,63,-99.99,,,-99.99,,2013-01-01 19:12:00,
2013-01-01 12:22:00,31.0,20.0,29.99,ESE,120,6.0,-999.0,63,-99.99,,,-99.99,,2013-01-01 19:22:00,
2013-01-01 12:32:00,31.0,20.0,29.99,ESE,120,6.0,-999.0,63,-99.99,,,-99.99,,2013-01-01 19:32:00,
2013-01-01 12:42:00,30.0,20.0,29.99,SE,130,8.0,-999.0,65,-99.99,,,-99.99,,2013-01-01 19:42:00,
2013-01-01 12:52:00,30.0,21.0,29.98,SE,130,8.0,-999.0,68,-99.99,,,-99.99,,2013-01-01 19:52:00,
2013-01-01 13:02:00,30.0,21.0,29.98,SE,130,8.0,-999.0,68,-99.99,,,-99.99,,2013-01-01 20:02:00,
2013-01-01 13:12:00,30.0,21.0,29.98,SE,130,8.0,-999.0,68,-99.99,,,-99.99,,2013-01-01 20:12:00,
2013-01-01 13:23:00,31.0,21.0,29.98,ESE,120,7.0,-999.0,66,-99.99,,,-99.99,,2013-01-01 20:23:00,
2013-01-01 13:32:00,31.0,21.0,29.97,SE,130,6.0,-999.0,66,-99.99,,,-99.99,,2013-01-01 20:32:00,
2013-01-01 13:42:00,31.0,21.0,29.97,SE,130,6.0,-999.0,66,-99.99,,,-99.99,,2013-01-01 20:42:00,
2013-01-01 13:52:00,31.0,21.0,29.97,SE,130,6.0,-999.0,66,-99.99,,,-99.99,,2013-01-01 20:52:00,
2013-01-01 14:03:00,31.0,21.0,29.97,SSE,150,7.0,-999.0,66,-99.99,,,-99.99,,2013-01-01 21:03:00,
2013-01-01 14:12:00,31.0,21.0,29.97,SSE,150,7.0,-999.0,66,-99.99,,,-99.99,,2013-01-01 21:12:00,
2013-01-01 14:22:00,31.0,21.0,29.96,SSE,150,8.0,-999.0,65,-99.99,,,-99.99,,2013-01-01 21:22:00,
2013-01-01 14:33:00,32.0,19.0,29.96,SSE,160,7.0,-999.0,57,-99.99,,,-99.99,,2013-01-01 21:33:00,
2013-01-01 14:42:00,32.0,19.0,29.96,SSE,160,7.0,-999.0,57,-99.99,,,-99.99,,2013-01-01 21:42:00,
2013-01-01 14:52:00,32.0,18.0,29.96,SSE,160,5.0,-999.0,56,-99.99,,,-99.99,,2013-01-01 21:52:00,
2013-01-01 15:02:00,32.0,18.0,29.96,SSE,160,5.0,-999.0,56,-99.99,,,-99.99,,2013-01-01 22:02:00,
2013-01-01 15:12:00,32.0,18.0,29.96,SSE,160,5.0,-999.0,56,-99.99,,,-99.99,,2013-01-01 22:12:00,
2013-01-01 15:22:00,32.0,20.0,29.97,SSE,150,5.0,-999.0,60,-99.99,,,-99.99,,2013-01-01 22:22:00,
2013-01-01 15:33:00,32.0,20.0,29.97,SSE,150,5.0,-999.0,60,-99.99,,,-99.99,,2013-01-01 22:33:00,
2013-01-01 15:42:00,32.0,18.0,29.97,South,170,6.0,-999.0,56,-99.99,,,-99.99,,2013-01-01 22:42:00,
2013-01-01 15:52:00,32.0,18.0,29.97,South,170,6.0,-999.0,56,-99.99,,,-99.99,,2013-01-01 22:52:00,
2013-01-01 16:02:00,32.0,20.0,29.97,South,170,7.0,-999.0,60,-99.99,,,-99.99,,2013-01-01 23:02:00,
2013-01-01 16:12:00,32.0,20.0,29.97,South,170,7.0,-999.0,60,-99.99,,,-99.99,,2013-01-01 23:12:00,
2013-01-01 16:22:00,32.0,19.0,29.97,South,180,8.0,-999.0,58,-99.99,,,-99.99,,2013-01-01 23:22:00,
2013-01-01 16:32:00,31.0,19.0,29.96,SSW,200,5.0,-999.0,59,-99.99,,,-99.99,,2013-01-01 23:32:00,
2013-01-01 16:42:00,31.0,19.0,29.96,SSW,200,5.0,-999.0,59,-99.99,,,-99.99,,2013-01-01 23:42:00,
2013-01-01 16:52:00,31.0,19.0,29.96,SSW,200,5.0,-999.0,59,-99.99,,,-99.99,,2013-01-01 23:52:00,
2013-01-01 17:02:00,33.0,19.0,29.96,North,360,5.0,-999.0,56,-99.99,,,-99.99,,2013-01-02 00:02:00,
2013-01-01 17:12:00,33.0,19.0,29.96,North,360,5.0,-999.0,56,-99.99,,,-99.99,,2013-01-02 00:12:00,
2013-01-01 17:22:00,33.0,19.0,29.96,North,350,9.0,-999.0,57,-99.99,,,-99.99,,2013-01-02 00:22:00,
2013-01-01 17:32:00,33.0,19.0,29.96,North,350,9.0,-999.0,57,-99.99,,,-99.99,,2013-01-02 00:32:00,
2013-01-01 17:42:00,33.0,20.0,29.96,North,350,3.0,-999.0,57,-99.99,,,-99.99,,2013-01-02 00:42:00,
2013-01-01 17:52:00,33.0,20.0,29.96,North,350,3.0,-999.0,57,-99.99,,,-99.99,,2013-01-02 00:52:00,
2013-01-01 18:02:00,32.0,21.0,29.96,NE,40,5.0,-999.0,62,-99.99,,,-99.99,,2013-01-02 01:02:00,
2013-01-01 18:12:00,32.0,21.0,29.96,NE,40,5.0,-999.0,62,-99.99,,,-99.99,,2013-01-02 01:12:00,
2013-01-01 18:22:00,32.0,21.0,29.96,North,0,0.0,-999.0,62,-99.99,,,-99.99,,2013-01-02 01:22:00,
2013-01-01 18:32:00,31.0,22.0,29.96,South,190,2.0,-999.0,70,-99.99,,,-99.99,,2013-01-02 01:32:00,
2013-01-01 18:42:00,31.0,22.0,29.96,South,190,2.0,-999.0,70,-99.99,,,-99.99,,2013-01-02 01:42:00,
2013-01-01 18:52:00,31.0,22.0,29.96,South,190,2.0,-999.0,70,-99.99,,,-99.99,,2013-01-02 01:52:00,
2013-01-01 19:02:00,32.0,22.0,29.97,North,0,0.0,-999.0,68,-99.99,,,-99.99,,2013-01-02 02:02:00,
2013-01-01 19:12:00,32.0,22.0,29.97,North,0,0.0,-999.0,68,-99.99,,,-99.99,,2013-01-02 02:12:00,
2013-01-01 19:22:00,31.0,23.0,29.97,NE,50,3.0,-999.0,70,-99.99,,,-99.99,,2013-01-02 02:22:00,
2013-01-01 19:32:00,31.0,24.0,29.97,North,350,6.0,-999.0,75,-99.99,,,-99.99,,2013-01-02 02:32:00,
2013-01-01 19:42:00,31.0,24.0,29.97,North,350,6.0,-999.0,75,-99.99,,,-99.99,,2013-01-02 02:42:00,
2013-01-01 19:52:00,31.0,24.0,29.97,North,350,6.0,-999.0,75,-99.99,,,-99.99,,2013-01-02 02:52:00,
2013-01-01 20:02:00,30.0,26.0,29.98,North,360,9.0,-999.0,82,-99.99,,,-99.99,,2013-01-02 03:02:00,
2013-01-01 20:12:00,30.0,26.0,29.98,North,360,9.0,-999.0,82,-99.99,,,-99.99,,2013-01-02 03:12:00,
2013-01-01 20:22:00,30.0,25.0,29.98,NNW,330,12.0,-999.0,82,-99.99,,,-99.99,,2013-01-02 03:22:00,
2013-01-01 20:32:00,30.0,25.0,29.98,NNW,330,12.0,-999.0,82,-99.99,,,-99.99,,2013-01-02 03:32:00,
2013-01-01 20:42:00,32.0,23.0,29.98,NW,320,24.0,33.0,70,-99.99,,,-99.99,,2013-01-02 03:42:00,
2013-01-01 20:52:00,32.0,23.0,29.98,NW,320,24.0,33.0,70,-99.99,,,-99.99,,2013-01-02 03:52:00,
2013-01-01 21:02:00,31.0,24.0,29.99,NNW,330,25.0,39.0,73,-99.99,,,-99.99,,2013-01-02 04:02:00,
2013-01-01 21:12:00,31.0,24.0,29.99,NNW,330,25.0,39.0,73,-99.99,,,-99.99,,2013-01-02 04:12:00,
2013-01-01 21:22:00,30.0,24.0,30.00,NNW,340,16.0,21.0,77,-99.99,,,-99.99,,2013-01-02 04:22:00,
2013-01-01 21:32:00,29.0,25.0,30.00,NNW,340,16.0,23.0,83,-99.99,,,-99.99,,2013-01-02 04:32:00,
2013-01-01 21:42:00,29.0,25.0,30.00,NNW,340,16.0,23.0,83,-99.99,,,-99.99,,2013-01-02 04:42:00,
2013-01-01 21:52:00,29.0,25.0,30.00,NNW,340,16.0,23.0,83,-99.99,,,-99.99,,2013-01-02 04:52:00,
2013-01-01 22:03:00,29.0,25.0,30.01,NNW,330,21.0,32.0,84,-99.99,,,-99.99,,2013-01-02 05:03:00,
2013-01-01 22:12:00,29.0,25.0,30.01,NNW,330,21.0,32.0,84,-99.99,,,-99.99,,2013-01-02 05:12:00,
2013-01-01 22:22:00,29.0,25.0,30.02,NNW,330,23.0,30.0,86,-99.99,,,-99.99,,2013-01-02 05:22:00,
2013-01-01 22:33:00,29.0,25.0,30.02,NNW,330,23.0,30.0,86,-99.99,,,-99.99,,2013-01-02 05:33:00,
2013-01-01 22:42:00,28.0,25.0,30.02,NW,320,18.0,28.0,85,-99.99,,,-99.99,,2013-01-02 05:42:00,
2013-01-01 22:52:00,28.0,25.0,30.02,NW,320,18.0,28.0,85,-99.99,,,-99.99,,2013-01-02 05:52:00,
2013-01-01 23:02:00,29.0,24.0,30.02,NW,320,16.0,24.0,82,-99.99,,,-99.99,,2013-01-02 06:02:00,
2013-01-01 23:12:00,29.0,24.0,30.02,NW,320,16.0,24.0,82,-99.99,,,-99.99,,2013-01-02 06:12:00,
2013-01-01 23:22:00,29.0,24.0,30.02,NW,320,22.0,32.0,79,-99.99,,,-99.99,,2013-01-02 06:22:00,
2013-01-01 23:32:00,29.0,24.0,30.02,NW,320,18.0,29.0,81,-99.99,,,-99.99,,2013-01-02 06:32:00,
2013-01-01 23:42:00,29.0,24.0,30.02,NW,320,18.0,29.0,81,-99.99,,,-99.99,,2013-01-02 06:42:00,
2013-01-01 23:52:00,29.0,25.0,30.02,NW,320,17.0,25.0,85,-99.99,,,-99.99,,2013-01-02 06:52:00,